Time;durP1;ratioP1;P1;durP2;ratioP2;P2;SDS_P1;SDS_P2;PMS_P1;PMS_P2;Temp;Humidity;BMP_temperature;BMP_pressure;BME280_temperature;BME280_humidity;BME280_pressure;Samples;Min_cycle;Max_cycle;Signal;HPM_P1;HPM_P2
2021/11/28 00:00:32;;;;;;;405.73;55.42;;;3.40;99.90;;;;;;4927891;29;20169;-86
2021/11/28 00:03:01;;;;;;;378.13;54.88;;;3.40;99.90;;;;;;4895266;29;20040;-87
2021/11/28 00:05:28;;;;;;;296.08;53.15;;;3.40;99.90;;;;;;4880822;29;20601;-86
2021/11/28 00:13:09;;;;;;;367.17;53.08;;;3.40;99.90;;;;;;4908819;29;20150;-86
2021/11/28 00:15:36;;;;;;;509.40;62.47;;;3.40;99.90;;;;;;4894549;29;20412;-88
2021/11/28 00:18:03;;;;;;;260.70;51.53;;;3.50;99.90;;;;;;4895471;29;20562;-86
2021/11/28 00:20:29;;;;;;;144.20;46.10;;;3.50;99.90;;;;;;4875657;29;20049;-88
2021/11/28 00:22:58;;;;;;;231.70;49.08;;;3.40;99.90;;;;;;4921026;29;20051;-87
2021/11/28 00:25:33;;;;;;;373.55;53.40;;;3.40;99.90;;;;;;4883121;29;20110;-87
2021/11/28 00:28:13;;;;;;;317.55;51.35;;;3.40;99.90;;;;;;4880604;29;20043;-88
2021/11/28 00:30:40;;;;;;;372.33;52.72;;;3.40;99.90;;;;;;4892422;29;20095;-87
2021/11/28 00:33:06;;;;;;;278.13;50.50;;;3.40;99.90;;;;;;4904013;29;20040;-87
2021/11/28 00:35:33;;;;;;;275.17;49.85;;;3.40;99.90;;;;;;4908731;28;20039;-87
2021/11/28 00:37:58;;;;;;;329.52;50.83;;;3.30;99.90;;;;;;4888446;29;20067;-87
2021/11/28 00:40:24;;;;;;;273.73;49.90;;;3.30;99.90;;;;;;4862947;29;20043;-88
2021/11/28 00:42:50;;;;;;;213.70;48.08;;;3.30;99.90;;;;;;4879589;29;20044;-87
2021/11/28 00:45:16;;;;;;;246.02;48.42;;;3.30;99.90;;;;;;4891853;29;20043;-87
2021/11/28 00:47:42;;;;;;;242.82;47.35;;;3.30;99.90;;;;;;4857570;29;20046;-88
2021/11/28 00:52:35;;;;;;;187.27;46.13;;;3.20;99.90;;;;;;4905484;29;20048;-88
2021/11/28 00:55:04;;;;;;;205.10;46.33;;;3.20;99.90;;;;;;4889477;29;20043;-89
2021/11/28 00:57:30;;;;;;;291.85;49.88;;;3.20;99.90;;;;;;4891738;29;20064;-87
2021/11/28 00:59:56;;;;;;;203.27;47.35;;;3.20;99.90;;;;;;4876280;29;20039;-87
2021/11/28 01:02:23;;;;;;;254.55;49.97;;;3.10;99.90;;;;;;4876600;29;20043;-87
2021/11/28 01:04:49;;;;;;;290.20;50.63;;;3.10;99.90;;;;;;4888543;29;20052;-87
2021/11/28 01:07:14;;;;;;;217.70;48.78;;;3.10;99.90;;;;;;4861961;29;20047;-88
2021/11/28 01:09:41;;;;;;;237.23;48.63;;;3.10;99.90;;;;;;4892779;29;21007;-87
2021/11/28 01:12:08;;;;;;;298.45;48.25;;;3.10;99.90;;;;;;4886685;29;20047;-88
2021/11/28 01:14:34;;;;;;;218.75;46.35;;;3.10;99.90;;;;;;4909269;29;20028;-86
2021/11/28 01:17:00;;;;;;;197.60;45.92;;;3.10;99.90;;;;;;4892108;29;20043;-88
2021/11/28 01:19:26;;;;;;;165.43;43.47;;;3.10;99.90;;;;;;4893635;29;20032;-87
2021/11/28 01:21:56;;;;;;;209.05;46.92;;;3.10;99.90;;;;;;4890327;29;20511;-87
2021/11/28 01:24:21;;;;;;;233.25;46.08;;;3.10;99.90;;;;;;4887269;29;20035;-87
2021/11/28 01:26:48;;;;;;;219.18;45.53;;;3.10;99.90;;;;;;4862244;29;20446;-88
2021/11/28 01:29:14;;;;;;;251.10;47.20;;;3.10;99.90;;;;;;4879754;29;20162;-87
2021/11/28 01:31:40;;;;;;;212.93;45.53;;;3.10;99.90;;;;;;4902702;29;20118;-87
2021/11/28 01:34:07;;;;;;;196.15;42.25;;;3.10;99.90;;;;;;4875373;29;20074;-88
2021/11/28 01:36:34;;;;;;;195.90;40.95;;;3.20;99.90;;;;;;4894486;29;20503;-87
2021/11/28 01:38:59;;;;;;;251.40;41.78;;;3.10;99.90;;;;;;4905676;29;20051;-87
2021/11/28 01:41:25;;;;;;;181.35;39.30;;;3.10;99.90;;;;;;4903309;29;20237;-87
2021/11/28 01:43:52;;;;;;;177.98;37.97;;;3.10;99.90;;;;;;4891232;29;20578;-87
2021/11/28 01:46:21;;;;;;;183.88;38.03;;;3.10;99.90;;;;;;4887090;29;20047;-87
2021/11/28 01:48:47;;;;;;;201.88;39.28;;;3.10;99.90;;;;;;4899995;29;20130;-87
2021/11/28 01:51:13;;;;;;;155.95;37.58;;;3.00;99.90;;;;;;4890042;29;20127;-87
2021/11/28 01:53:39;;;;;;;193.88;37.88;;;3.00;99.90;;;;;;4891326;29;20039;-87
2021/11/28 01:56:05;;;;;;;248.77;41.33;;;3.00;99.90;;;;;;4877762;29;20082;-87
2021/11/28 01:58:31;;;;;;;167.88;38.75;;;3.00;99.90;;;;;;4874565;29;20044;-87
2021/11/28 02:01:00;;;;;;;331.75;42.80;;;3.00;99.90;;;;;;4907360;29;20156;-88
2021/11/28 02:03:27;;;;;;;182.43;38.90;;;3.00;99.90;;;;;;4890530;29;20039;-87
2021/11/28 02:05:59;;;;;;;314.23;44.67;;;3.00;99.90;;;;;;4897180;29;20173;-87
2021/11/28 02:08:25;;;;;;;398.77;45.03;;;3.00;99.90;;;;;;4918560;29;20656;-87
2021/11/28 02:10:51;;;;;;;341.27;43.15;;;3.00;99.90;;;;;;4890358;29;20056;-87
2021/11/28 02:13:19;;;;;;;172.80;38.55;;;3.00;99.90;;;;;;4860575;29;20395;-87
2021/11/28 02:15:46;;;;;;;189.45;37.90;;;3.00;99.90;;;;;;4893191;29;20039;-87
2021/11/28 02:18:12;;;;;;;221.10;39.10;;;3.00;99.90;;;;;;4892673;29;20039;-87
2021/11/28 02:20:45;;;;;;;165.52;36.20;;;3.00;99.90;;;;;;4897079;29;20039;-87
2021/11/28 02:23:12;;;;;;;125.43;34.42;;;2.90;99.90;;;;;;4891248;29;20475;-87
2021/11/28 02:25:38;;;;;;;132.50;34.78;;;2.90;99.90;;;;;;4878517;29;20049;-87
2021/11/28 02:28:04;;;;;;;187.50;38.40;;;2.90;99.90;;;;;;4910771;29;20051;-87
2021/11/28 02:30:29;;;;;;;145.13;35.33;;;2.90;99.90;;;;;;4877080;29;20028;-87
2021/11/28 02:32:58;;;;;;;153.85;37.33;;;2.90;99.90;;;;;;4894247;29;20036;-87
2021/11/28 02:35:26;;;;;;;157.50;36.42;;;2.90;99.90;;;;;;4895895;29;20046;-87
2021/11/28 02:37:53;;;;;;;146.90;37.10;;;2.90;99.90;;;;;;4906253;29;20132;-87
2021/11/28 02:40:22;;;;;;;183.50;37.65;;;2.90;99.90;;;;;;4875269;29;20118;-87
2021/11/28 02:42:50;;;;;;;182.73;37.63;;;2.90;99.90;;;;;;4893872;29;20561;-87
2021/11/28 02:45:18;;;;;;;156.45;35.60;;;2.90;99.90;;;;;;4908580;29;20375;-87
2021/11/28 02:47:44;;;;;;;180.05;38.70;;;2.90;99.90;;;;;;4879474;29;20051;-87
2021/11/28 02:50:14;;;;;;;197.80;37.90;;;2.90;99.90;;;;;;4895641;29;20040;-86
2021/11/28 02:52:41;;;;;;;209.63;37.35;;;2.90;99.90;;;;;;4894460;29;20036;-87
2021/11/28 02:55:08;;;;;;;169.27;37.20;;;2.90;99.90;;;;;;4903332;29;20092;-87
2021/11/28 02:57:34;;;;;;;215.02;38.50;;;2.90;99.90;;;;;;4904102;29;20050;-86
2021/11/28 03:00:00;;;;;;;173.98;35.15;;;2.90;99.90;;;;;;4891422;29;20068;-86
2021/11/28 03:02:26;;;;;;;176.93;36.63;;;2.80;99.90;;;;;;4905872;29;20063;-87
2021/11/28 03:04:53;;;;;;;398.25;43.78;;;2.80;99.90;;;;;;4923536;29;20566;-86
2021/11/28 03:07:20;;;;;;;183.43;35.35;;;2.80;99.90;;;;;;4912359;29;20316;-87
2021/11/28 03:09:46;;;;;;;289.77;39.80;;;2.80;99.90;;;;;;4893794;29;20075;-86
2021/11/28 03:12:12;;;;;;;171.07;35.35;;;2.80;99.90;;;;;;4907042;29;20039;-87
2021/11/28 03:14:39;;;;;;;173.20;34.72;;;2.80;99.90;;;;;;4906313;29;20098;-86
2021/11/28 03:17:05;;;;;;;190.68;35.28;;;2.70;99.90;;;;;;4897004;29;20047;-87
2021/11/28 03:19:32;;;;;;;289.75;39.60;;;2.80;99.90;;;;;;4899597;29;20043;-87
2021/11/28 03:21:57;;;;;;;202.93;36.13;;;2.80;99.90;;;;;;4906453;29;20490;-86
2021/11/28 03:24:23;;;;;;;235.48;37.63;;;2.80;99.90;;;;;;4878835;29;20047;-87
2021/11/28 03:26:51;;;;;;;193.93;36.25;;;2.80;99.90;;;;;;4877232;29;20051;-86
2021/11/28 03:29:22;;;;;;;215.23;36.42;;;2.70;99.90;;;;;;4879623;29;20487;-86
2021/11/28 03:31:51;;;;;;;179.20;35.97;;;2.80;99.90;;;;;;4904999;29;20044;-86
2021/11/28 03:34:18;;;;;;;300.73;41.88;;;2.80;99.90;;;;;;4906845;29;20541;-86
2021/11/28 03:36:49;;;;;;;204.57;37.70;;;2.80;99.90;;;;;;4893429;29;20133;-85
2021/11/28 03:39:17;;;;;;;156.50;36.10;;;2.90;99.90;;;;;;4894828;29;20044;-87
2021/11/28 03:41:45;;;;;;;223.35;37.85;;;2.80;99.90;;;;;;4893197;29;20046;-87
2021/11/28 03:44:12;;;;;;;244.35;37.22;;;2.90;99.90;;;;;;4910870;29;20120;-87
2021/11/28 03:46:38;;;;;;;191.73;38.00;;;2.90;99.90;;;;;;4876765;29;20329;-87
2021/11/28 03:49:05;;;;;;;203.20;37.28;;;2.80;99.90;;;;;;4909863;29;20040;-87
2021/11/28 03:51:34;;;;;;;183.50;37.47;;;2.90;99.90;;;;;;4876561;29;20055;-87
2021/11/28 03:53:59;;;;;;;212.27;38.05;;;2.80;99.90;;;;;;4872747;29;20043;-87
2021/11/28 03:56:26;;;;;;;148.10;35.17;;;2.90;99.90;;;;;;4893679;29;20036;-86
2021/11/28 03:58:52;;;;;;;228.00;38.13;;;2.80;99.90;;;;;;4921163;29;20570;-87
2021/11/28 04:01:20;;;;;;;187.52;35.10;;;2.80;99.90;;;;;;4891147;29;20064;-87
2021/11/28 04:03:46;;;;;;;167.10;35.85;;;2.80;99.90;;;;;;4896395;29;20047;-88
2021/11/28 04:06:12;;;;;;;136.82;34.70;;;2.70;99.90;;;;;;4890903;29;20446;-87
2021/11/28 04:08:39;;;;;;;164.98;34.58;;;2.70;99.90;;;;;;4888009;29;20139;-87
2021/11/28 04:11:05;;;;;;;142.95;33.38;;;2.70;99.90;;;;;;4890170;29;20134;-87
2021/11/28 04:13:31;;;;;;;149.30;33.33;;;2.60;99.90;;;;;;4896587;29;20047;-87
2021/11/28 04:15:57;;;;;;;155.20;34.15;;;2.60;99.90;;;;;;4860879;29;20044;-87
2021/11/28 04:18:23;;;;;;;171.13;35.25;;;2.50;99.90;;;;;;4875946;29;20067;-87
2021/11/28 04:20:49;;;;;;;167.45;32.65;;;2.40;99.90;;;;;;4896034;29;20043;-87
2021/11/28 04:23:17;;;;;;;181.85;33.08;;;2.40;99.90;;;;;;4904810;29;20130;-87
2021/11/28 04:25:43;;;;;;;286.10;36.47;;;2.30;99.90;;;;;;4893701;29;20069;-87
2021/11/28 04:28:09;;;;;;;177.25;34.30;;;2.30;99.90;;;;;;4897691;29;20375;-87
2021/11/28 04:30:35;;;;;;;228.00;36.58;;;2.30;99.90;;;;;;4906417;29;20047;-87
2021/11/28 04:33:02;;;;;;;190.18;33.72;;;2.30;99.90;;;;;;4896018;29;20122;-87
2021/11/28 04:35:28;;;;;;;152.90;33.00;;;2.20;99.90;;;;;;4919851;29;20183;-87
2021/11/28 04:37:54;;;;;;;169.55;31.45;;;2.20;99.90;;;;;;4879513;29;20590;-87
2021/11/28 04:40:20;;;;;;;216.15;34.83;;;2.10;99.90;;;;;;4889100;29;20088;-87
2021/11/28 04:42:46;;;;;;;156.30;33.72;;;2.10;99.90;;;;;;4875386;29;20071;-88
2021/11/28 04:45:12;;;;;;;383.77;39.55;;;2.00;99.90;;;;;;4876395;29;20047;-88
2021/11/28 04:47:39;;;;;;;213.82;36.78;;;2.10;99.90;;;;;;4907154;29;20036;-88
2021/11/28 04:50:11;;;;;;;187.80;36.05;;;2.10;99.90;;;;;;4896582;29;20050;-87
2021/11/28 04:52:37;;;;;;;191.57;34.38;;;2.10;99.90;;;;;;4908151;29;20044;-88
2021/11/28 04:55:06;;;;;;;287.65;39.15;;;2.10;99.90;;;;;;4894114;29;20054;-86
2021/11/28 04:57:33;;;;;;;174.60;34.53;;;2.10;99.90;;;;;;4893540;29;20040;-87
2021/11/28 04:59:59;;;;;;;145.68;31.90;;;2.00;99.90;;;;;;4925329;29;20051;-87
2021/11/28 05:02:25;;;;;;;396.25;39.85;;;2.00;99.90;;;;;;4894412;29;20043;-88
2021/11/28 05:04:50;;;;;;;476.23;43.55;;;2.00;99.90;;;;;;4925764;29;20043;-88
2021/11/28 05:07:16;;;;;;;350.75;38.30;;;2.00;99.90;;;;;;4903441;29;20503;-87
2021/11/28 05:09:42;;;;;;;376.85;39.65;;;2.00;99.90;;;;;;4909938;29;20435;-86
2021/11/28 05:12:09;;;;;;;219.60;34.92;;;1.90;99.90;;;;;;4863012;29;20032;-87
2021/11/28 05:14:34;;;;;;;273.08;37.40;;;1.90;99.90;;;;;;4889371;29;20124;-87
2021/11/28 05:17:00;;;;;;;471.70;43.40;;;1.90;99.90;;;;;;4882238;29;20326;-87
2021/11/28 05:19:26;;;;;;;339.80;37.75;;;1.80;99.90;;;;;;4880711;29;20491;-87
2021/11/28 05:21:52;;;;;;;360.23;38.25;;;1.80;99.90;;;;;;4923356;28;20144;-87
2021/11/28 05:24:17;;;;;;;341.80;35.80;;;1.80;99.90;;;;;;4856551;29;20410;-87
2021/11/28 05:26:44;;;;;;;826.03;54.33;;;1.70;99.90;;;;;;4892472;29;20189;-87
2021/11/28 05:29:10;;;;;;;603.70;42.45;;;1.70;99.90;;;;;;4876426;29;20039;-87
2021/11/28 05:31:36;;;;;;;467.63;40.95;;;1.70;99.90;;;;;;4890428;29;20558;-87
2021/11/28 05:34:01;;;;;;;273.85;36.10;;;1.70;99.90;;;;;;4853339;29;20153;-86
2021/11/28 05:36:27;;;;;;;360.77;40.92;;;1.70;99.90;;;;;;4885474;29;20036;-87
2021/11/28 05:38:53;;;;;;;298.33;39.22;;;1.70;99.90;;;;;;4893057;29;20467;-87
2021/11/28 05:41:19;;;;;;;371.23;41.08;;;1.70;99.90;;;;;;4888027;29;20105;-87
2021/11/28 05:43:47;;;;;;;596.33;49.50;;;1.70;99.90;;;;;;4885277;29;20774;-88
2021/11/28 05:46:13;;;;;;;554.85;47.28;;;1.70;99.90;;;;;;4873783;29;20055;-88
2021/11/28 05:48:38;;;;;;;478.23;42.33;;;1.70;99.90;;;;;;4906170;29;20040;-88
2021/11/28 05:51:05;;;;;;;725.03;52.22;;;1.70;99.90;;;;;;4894492;29;20184;-87
2021/11/28 05:53:31;;;;;;;780.20;54.60;;;1.80;99.90;;;;;;4870101;29;21214;-86
2021/11/28 05:55:57;;;;;;;620.40;47.17;;;1.70;99.90;;;;;;4887963;29;20473;-87
2021/11/28 05:58:23;;;;;;;598.47;45.67;;;1.70;99.90;;;;;;4889219;29;20052;-87
2021/11/28 06:00:49;;;;;;;774.10;52.60;;;1.70;99.90;;;;;;4885833;29;20048;-87
2021/11/28 06:03:15;;;;;;;662.83;50.00;;;1.70;99.90;;;;;;4879460;29;20086;-87
2021/11/28 06:05:44;;;;;;;432.45;41.42;;;1.70;99.90;;;;;;4890154;29;20066;-86
2021/11/28 06:08:10;;;;;;;481.02;42.30;;;1.70;99.90;;;;;;4891147;29;20074;-87
2021/11/28 06:10:36;;;;;;;536.47;43.35;;;1.70;99.90;;;;;;4878418;29;20074;-86
2021/11/28 06:13:01;;;;;;;751.88;55.00;;;1.70;99.90;;;;;;4906104;29;20054;-87
2021/11/28 06:15:27;;;;;;;739.92;54.80;;;1.70;99.90;;;;;;4877753;29;20538;-87
2021/11/28 06:17:53;;;;;;;716.00;51.88;;;1.70;99.90;;;;;;4892819;29;20071;-86
2021/11/28 06:20:19;;;;;;;536.85;43.60;;;1.70;99.90;;;;;;4907400;29;20039;-87
2021/11/28 06:22:45;;;;;;;547.22;46.88;;;1.60;99.90;;;;;;4902125;29;20150;-86
2021/11/28 06:25:11;;;;;;;731.33;51.28;;;1.70;99.90;;;;;;4880094;29;20098;-86
2021/11/28 06:27:36;;;;;;;608.45;47.13;;;1.70;99.90;;;;;;4922492;29;20035;-87
2021/11/28 06:30:05;;;;;;;780.17;53.53;;;1.70;99.90;;;;;;4894754;29;20039;-87
2021/11/28 06:32:31;;;;;;;800.03;53.72;;;1.70;99.90;;;;;;4892303;29;20297;-87
2021/11/28 06:34:57;;;;;;;768.00;54.63;;;1.70;99.90;;;;;;4894972;29;20082;-87
2021/11/28 06:37:23;;;;;;;840.08;57.28;;;1.70;99.90;;;;;;4903442;29;20048;-88
2021/11/28 06:39:49;;;;;;;754.83;53.97;;;1.70;99.90;;;;;;4893134;29;20044;-87
2021/11/28 06:42:15;;;;;;;871.83;56.85;;;1.70;99.90;;;;;;4884043;29;20059;-87
2021/11/28 06:44:41;;;;;;;769.60;52.17;;;1.70;99.90;;;;;;4900432;29;20048;-87
2021/11/28 06:47:08;;;;;;;781.20;53.88;;;1.60;99.90;;;;;;4855704;29;20305;-88
2021/11/28 06:49:33;;;;;;;756.30;51.80;;;1.60;99.90;;;;;;4876290;29;20126;-87
2021/11/28 06:51:59;;;;;;;632.83;48.28;;;1.60;99.90;;;;;;4892075;29;20043;-87
2021/11/28 06:54:25;;;;;;;706.70;50.83;;;1.60;99.90;;;;;;4877676;29;20039;-86
2021/11/28 06:56:51;;;;;;;774.13;52.05;;;1.60;99.90;;;;;;4889509;29;20590;-87
2021/11/28 06:59:19;;;;;;;693.85;48.92;;;1.60;99.90;;;;;;4890303;29;20043;-86
2021/11/28 07:01:46;;;;;;;579.00;45.75;;;1.60;99.90;;;;;;4919313;29;20073;-87
2021/11/28 07:04:11;;;;;;;728.67;53.03;;;1.60;99.90;;;;;;4886900;29;20455;-86
2021/11/28 07:06:37;;;;;;;670.38;49.70;;;1.60;99.90;;;;;;4894640;29;20135;-87
2021/11/28 07:09:03;;;;;;;619.50;45.83;;;1.60;99.90;;;;;;4887649;29;20040;-87
2021/11/28 07:11:30;;;;;;;545.97;45.08;;;1.60;99.90;;;;;;4872528;29;20321;-87
2021/11/28 07:13:56;;;;;;;543.60;43.17;;;1.60;99.90;;;;;;4874161;29;20032;-87
2021/11/28 07:16:22;;;;;;;489.58;41.50;;;1.60;99.90;;;;;;4874667;29;20131;-86
2021/11/28 07:18:48;;;;;;;499.60;40.72;;;1.60;99.90;;;;;;4887150;29;20047;-87
2021/11/28 07:21:15;;;;;;;583.78;45.35;;;1.60;99.90;;;;;;4887794;29;20054;-86
2021/11/28 07:23:40;;;;;;;794.92;55.05;;;1.60;99.90;;;;;;4887522;29;20043;-86
2021/11/28 07:26:07;;;;;;;663.00;48.72;;;1.60;99.90;;;;;;4858478;29;20044;-87
2021/11/28 07:28:34;;;;;;;682.13;46.53;;;1.60;99.90;;;;;;4872706;29;20098;-87
2021/11/28 07:31:00;;;;;;;581.08;42.55;;;1.70;99.90;;;;;;4873960;29;20036;-87
2021/11/28 07:33:25;;;;;;;619.80;44.03;;;1.60;99.90;;;;;;4871093;29;20156;-87
2021/11/28 07:35:51;;;;;;;567.38;43.67;;;1.60;99.90;;;;;;4887683;29;20123;-87
2021/11/28 07:38:18;;;;;;;644.05;46.83;;;1.70;99.90;;;;;;4894410;29;20055;-87
2021/11/28 07:40:44;;;;;;;642.70;46.15;;;1.70;99.90;;;;;;4899305;29;20057;-85
2021/11/28 07:43:11;;;;;;;628.80;44.45;;;1.70;99.90;;;;;;4865587;29;20047;-87
2021/11/28 07:45:37;;;;;;;579.97;42.72;;;1.60;99.90;;;;;;4898265;29;20044;-88
2021/11/28 07:48:04;;;;;;;530.05;41.85;;;1.70;99.90;;;;;;4903244;29;20047;-87
2021/11/28 07:50:34;;;;;;;663.03;47.70;;;1.60;99.90;;;;;;4900055;29;20064;-87
2021/11/28 07:53:04;;;;;;;584.25;42.08;;;1.60;99.90;;;;;;4909267;29;20404;-86
2021/11/28 07:55:30;;;;;;;601.78;42.75;;;1.50;99.90;;;;;;4876114;29;20040;-87
2021/11/28 07:57:58;;;;;;;638.88;44.40;;;1.60;99.90;;;;;;4874779;29;20660;-87
2021/11/28 08:00:23;;;;;;;516.58;38.40;;;1.60;99.90;;;;;;4874944;29;20076;-87
2021/11/28 08:02:49;;;;;;;564.58;39.03;;;1.50;99.90;;;;;;4859788;29;20527;-87
2021/11/28 08:05:15;;;;;;;612.80;41.97;;;1.50;99.90;;;;;;4874964;29;20133;-86
2021/11/28 08:07:48;;;;;;;630.60;43.20;;;1.50;99.90;;;;;;4878114;29;20071;-87
2021/11/28 08:10:15;;;;;;;447.90;35.85;;;1.50;99.90;;;;;;4882022;29;20036;-86
2021/11/28 08:12:40;;;;;;;516.88;38.60;;;1.50;99.90;;;;;;4900088;29;20048;-86
2021/11/28 08:15:10;;;;;;;569.38;41.63;;;1.60;99.90;;;;;;4865195;29;20079;-87
2021/11/28 08:17:38;;;;;;;431.25;33.97;;;1.60;99.90;;;;;;4894957;29;20556;-86
2021/11/28 08:20:08;;;;;;;368.85;30.58;;;1.60;99.90;;;;;;4872856;29;20055;-86
2021/11/28 08:22:35;;;;;;;382.48;32.13;;;1.60;99.90;;;;;;4870150;29;20196;-87
2021/11/28 08:25:01;;;;;;;317.77;29.48;;;1.50;99.90;;;;;;4887650;29;20463;-87
2021/11/28 08:27:27;;;;;;;442.42;35.45;;;1.50;99.90;;;;;;4910604;29;20048;-87
2021/11/28 08:29:54;;;;;;;411.52;32.13;;;1.50;99.90;;;;;;4875528;29;20388;-87
2021/11/28 08:32:20;;;;;;;492.98;37.25;;;1.50;99.90;;;;;;4880173;29;20092;-88
2021/11/28 08:34:45;;;;;;;483.48;34.60;;;1.40;99.90;;;;;;4874057;29;20419;-87
2021/11/28 08:37:12;;;;;;;402.30;31.33;;;1.50;99.90;;;;;;4858716;29;20045;-87
2021/11/28 08:39:38;;;;;;;415.70;30.83;;;1.40;99.90;;;;;;4877697;29;20065;-87
2021/11/28 08:42:07;;;;;;;266.75;25.75;;;1.40;99.90;;;;;;4858989;29;20103;-86
2021/11/28 08:44:35;;;;;;;398.92;31.70;;;1.40;99.90;;;;;;4873198;29;20436;-87
2021/11/28 08:47:01;;;;;;;365.70;30.95;;;1.40;99.90;;;;;;4871558;29;20078;-86
2021/11/28 08:49:29;;;;;;;266.50;27.10;;;1.50;99.90;;;;;;4870852;29;20044;-86
2021/11/28 08:51:55;;;;;;;367.88;31.60;;;1.50;99.90;;;;;;4871760;29;20484;-86
2021/11/28 08:54:21;;;;;;;312.88;30.02;;;1.60;99.90;;;;;;4874338;29;20036;-85
2021/11/28 08:56:50;;;;;;;298.90;29.98;;;1.60;99.90;;;;;;4906007;28;20046;-86
2021/11/28 08:59:18;;;;;;;222.25;27.67;;;1.60;99.90;;;;;;4881613;29;20081;-86
2021/11/28 09:01:44;;;;;;;130.10;25.77;;;1.70;99.90;;;;;;4893412;29;20039;-86
2021/11/28 09:04:11;;;;;;;184.75;30.70;;;1.70;99.90;;;;;;4879047;29;20130;-86
2021/11/28 09:06:37;;;;;;;102.85;24.65;;;1.80;99.90;;;;;;4918140;29;20044;-86
2021/11/28 09:09:04;;;;;;;160.80;27.27;;;1.90;99.90;;;;;;4893633;29;20054;-86
2021/11/28 09:11:30;;;;;;;117.78;24.67;;;2.00;99.90;;;;;;4891898;29;20044;-85
2021/11/28 09:13:56;;;;;;;102.95;24.75;;;2.00;99.90;;;;;;4889185;29;20047;-87
2021/11/28 09:16:22;;;;;;;81.35;22.98;;;2.10;99.90;;;;;;4888939;29;20036;-86
2021/11/28 09:18:56;;;;;;;83.25;23.02;;;2.20;99.90;;;;;;4906255;29;20107;-87
2021/11/28 09:21:27;;;;;;;115.10;25.45;;;2.20;99.90;;;;;;4905159;29;20565;-87
2021/11/28 09:26:42;;;;;;;119.65;27.52;;;2.40;99.90;;;;;;4898092;29;20126;-86
2021/11/28 09:29:08;;;;;;;79.65;25.25;;;2.60;99.90;;;;;;4912979;29;20214;-87
2021/11/28 09:31:34;;;;;;;104.53;26.73;;;2.70;99.90;;;;;;4908135;29;20048;-87
2021/11/28 09:34:02;;;;;;;81.13;24.20;;;2.80;99.90;;;;;;4880381;29;20035;-86
2021/11/28 09:36:29;;;;;;;99.30;25.55;;;2.90;99.90;;;;;;4891276;29;20044;-85
2021/11/28 09:38:55;;;;;;;71.15;22.35;;;2.90;99.90;;;;;;4911423;29;20447;-87
2021/11/28 09:41:23;;;;;;;85.82;23.17;;;3.00;99.90;;;;;;4886999;29;20431;-87
2021/11/28 09:43:54;;;;;;;65.13;20.60;;;3.10;99.90;;;;;;4897001;29;20050;-87
2021/11/28 09:46:25;;;;;;;61.70;20.73;;;3.10;99.90;;;;;;4891840;29;20091;-87
2021/11/28 09:49:01;;;;;;;68.10;21.67;;;3.30;99.90;;;;;;4908674;29;20162;-86
2021/11/28 09:51:28;;;;;;;79.00;23.77;;;3.40;99.90;;;;;;4866396;29;20302;-88
2021/11/28 09:54:03;;;;;;;70.32;23.70;;;3.50;99.90;;;;;;4921670;29;20038;-87
2021/11/28 09:56:34;;;;;;;69.25;22.50;;;3.70;99.90;;;;;;4894737;29;20039;-87
2021/11/28 09:59:03;;;;;;;81.88;24.48;;;3.80;99.90;;;;;;4902576;29;20050;-86
2021/11/28 10:01:31;;;;;;;71.38;23.17;;;3.90;99.90;;;;;;4874067;29;20046;-87
2021/11/28 10:03:57;;;;;;;85.18;24.77;;;4.00;99.90;;;;;;4878012;29;20503;-86
2021/11/28 10:06:23;;;;;;;61.38;20.23;;;4.10;99.90;;;;;;4877205;29;20130;-86
2021/11/28 10:08:49;;;;;;;45.67;18.38;;;4.20;99.90;;;;;;4876364;29;20052;-88
2021/11/28 10:11:17;;;;;;;53.50;18.23;;;4.30;99.90;;;;;;4877392;29;20446;-87
2021/11/28 10:13:48;;;;;;;45.78;16.95;;;4.50;99.90;;;;;;4910025;29;20032;-91
2021/11/28 10:16:20;;;;;;;44.72;16.35;;;4.50;99.90;;;;;;4891220;29;20032;-89
2021/11/28 10:18:46;;;;;;;42.35;15.35;;;4.60;99.90;;;;;;4913101;29;20418;-87
2021/11/28 10:21:13;;;;;;;49.22;16.23;;;4.60;99.90;;;;;;4896548;29;20048;-88
2021/11/28 10:24:11;;;;;;;32.80;13.85;;;4.60;99.90;;;;;;4896976;29;20052;-87
2021/11/28 10:26:59;;;;;;;26.92;12.02;;;4.70;99.90;;;;;;4903460;29;20047;-87
2021/11/28 10:29:36;;;;;;;36.22;12.50;;;4.70;99.90;;;;;;4912732;29;20043;-86
2021/11/28 10:32:10;;;;;;;28.67;10.85;;;4.70;99.90;;;;;;4919489;29;20039;-87
2021/11/28 10:34:47;;;;;;;25.50;10.23;;;4.70;99.90;;;;;;4900333;29;20111;-86
2021/11/28 10:37:25;;;;;;;26.30;10.35;;;4.70;99.90;;;;;;4909138;29;20042;-85
2021/11/28 10:40:00;;;;;;;22.50;9.38;;;4.60;99.90;;;;;;4888826;29;20044;-85
2021/11/28 10:42:29;;;;;;;17.25;7.97;;;4.60;99.90;;;;;;4912337;29;20075;-87
2021/11/28 10:45:03;;;;;;;18.50;7.40;;;4.60;99.90;;;;;;4906877;29;20418;-87
2021/11/28 10:47:40;;;;;;;15.75;6.68;;;4.70;99.90;;;;;;4923369;29;20048;-87
2021/11/28 10:50:35;;;;;;;16.65;5.55;;;4.70;99.90;;;;;;4906884;29;20095;-88
2021/11/28 10:53:15;;;;;;;8.57;4.85;;;4.60;99.90;;;;;;4896745;29;20521;-87
2021/11/28 10:55:41;;;;;;;9.60;4.13;;;4.60;99.90;;;;;;4907923;29;20122;-86
2021/11/28 10:58:13;;;;;;;6.43;3.70;;;4.60;99.90;;;;;;4893767;29;20130;-86
2021/11/28 11:01:01;;;;;;;6.88;3.47;;;4.60;99.90;;;;;;4904721;29;20043;-87
2021/11/28 11:03:34;;;;;;;5.90;3.08;;;4.60;99.90;;;;;;4888910;29;20388;-85
2021/11/28 11:06:28;;;;;;;8.30;2.42;;;4.60;99.90;;;;;;4915698;29;20040;-85
2021/11/28 11:09:28;;;;;;;7.57;2.22;;;4.60;99.90;;;;;;4891111;29;20046;-86
2021/11/28 11:11:54;;;;;;;3.63;2.20;;;4.60;99.90;;;;;;4875975;29;20036;-86
2021/11/28 11:14:21;;;;;;;6.03;2.30;;;4.60;99.90;;;;;;4893636;29;20044;-88
2021/11/28 11:16:49;;;;;;;3.55;1.95;;;4.60;99.90;;;;;;4894193;29;20066;-86
2021/11/28 11:19:34;;;;;;;5.55;1.92;;;4.60;99.90;;;;;;4888538;29;20036;-85
2021/11/28 11:22:11;;;;;;;4.28;1.52;;;4.60;99.90;;;;;;4891131;29;20562;-85
2021/11/28 11:24:41;;;;;;;3.78;1.73;;;4.70;99.90;;;;;;4895835;29;20054;-84
2021/11/28 11:27:15;;;;;;;3.33;1.75;;;4.60;99.90;;;;;;4916093;29;20121;-86
2021/11/28 11:29:48;;;;;;;7.30;1.70;;;4.70;99.90;;;;;;4893024;29;20048;-85
2021/11/28 11:32:15;;;;;;;4.63;1.05;;;4.70;99.90;;;;;;4923372;29;20048;-86
2021/11/28 11:34:56;;;;;;;4.18;1.20;;;4.80;99.90;;;;;;4891814;29;20044;-84
2021/11/28 11:37:25;;;;;;;2.55;0.70;;;4.80;99.90;;;;;;4904938;29;20311;-85
2021/11/28 11:39:52;;;;;;;1.85;0.70;;;4.80;99.90;;;;;;4904664;29;20042;-86
2021/11/28 11:42:20;;;;;;;3.55;0.60;;;4.80;99.90;;;;;;4898622;29;20434;-87
2021/11/28 11:44:47;;;;;;;0.40;0.30;;;4.90;99.90;;;;;;4874063;29;20430;-86
2021/11/28 11:47:13;;;;;;;1.48;0.55;;;4.90;99.90;;;;;;4880204;29;20070;-88
2021/11/28 11:49:41;;;;;;;1.38;0.30;;;4.90;99.90;;;;;;4893343;29;20654;-85
2021/11/28 11:52:08;;;;;;;2.38;0.50;;;4.90;99.90;;;;;;4878934;29;20135;-89
2021/11/28 11:54:43;;;;;;;1.70;0.30;;;4.90;99.90;;;;;;4908546;29;20031;-86
2021/11/28 11:57:15;;;;;;;2.42;0.60;;;4.80;99.90;;;;;;4893707;29;20075;-86
2021/11/28 11:59:53;;;;;;;1.90;0.50;;;4.80;99.90;;;;;;4902893;29;20047;-87
2021/11/28 12:02:30;;;;;;;3.60;0.40;;;4.80;99.90;;;;;;4908114;29;20107;-88
2021/11/28 12:04:56;;;;;;;1.38;0.50;;;4.70;99.90;;;;;;4906936;29;20039;-87
2021/11/28 12:07:51;;;;;;;1.92;0.35;;;4.70;99.90;;;;;;4912418;29;20107;-88
2021/11/28 12:10:27;;;;;;;2.85;0.60;;;4.60;99.90;;;;;;4879554;29;20036;-85
2021/11/28 12:12:53;;;;;;;3.35;0.63;;;4.60;99.90;;;;;;4903628;29;20040;-86
2021/11/28 12:15:24;;;;;;;2.70;0.50;;;4.60;99.90;;;;;;4921844;29;20050;-89
2021/11/28 12:17:52;;;;;;;3.53;0.50;;;4.60;99.90;;;;;;4896541;29;20040;-87
2021/11/28 12:20:44;;;;;;;3.70;0.70;;;4.50;99.90;;;;;;4902879;29;20051;-86
2021/11/28 12:23:53;;;;;;;4.80;0.50;;;4.50;99.90;;;;;;4893664;29;20126;-86
2021/11/28 12:26:26;;;;;;;2.95;0.52;;;4.50;99.90;;;;;;4901993;29;20123;-86
2021/11/28 12:29:12;;;;;;;1.63;0.25;;;4.50;99.90;;;;;;4909215;29;20210;-84
2021/11/28 12:31:43;;;;;;;3.03;0.30;;;4.40;99.90;;;;;;4881396;29;20051;-83
2021/11/28 12:34:11;;;;;;;1.67;0.43;;;4.40;99.90;;;;;;4909285;29;20043;-84
2021/11/28 12:36:55;;;;;;;0.60;0.30;;;4.30;99.90;;;;;;4887823;29;20587;-83
2021/11/28 12:39:24;;;;;;;1.25;0.43;;;4.20;99.90;;;;;;4895254;29;20047;-84
2021/11/28 12:42:05;;;;;;;2.58;0.40;;;4.20;99.90;;;;;;4923449;29;20539;-87
2021/11/28 12:44:32;;;;;;;5.22;0.52;;;4.10;99.90;;;;;;4898630;29;20572;-86
2021/11/28 12:47:08;;;;;;;3.83;0.32;;;4.10;99.90;;;;;;4914472;29;20055;-83
2021/11/28 12:49:45;;;;;;;1.67;0.40;;;4.00;99.90;;;;;;4895099;29;20614;-86